sensor_id;sensor_type;location;lat;lon;timestamp;temperature;humidity
70154;DHT22;57519;51.494;-2.626;2023-07-24T00:00:40;16.08;89.12
70154;DHT22;57519;51.494;-2.626;2023-07-24T00:03:06;16.09;88.91
70154;DHT22;57519;51.494;-2.626;2023-07-24T00:05:31;16.18;87.47
70154;DHT22;57519;51.494;-2.626;2023-07-24T00:07:57;16.26;87.50
70154;DHT22;57519;51.494;-2.626;2023-07-24T00:10:22;16.33;87.24
70154;DHT22;57519;51.494;-2.626;2023-07-24T00:12:48;16.39;86.73
70154;DHT22;57519;51.494;-2.626;2023-07-24T00:15:13;16.41;86.43
70154;DHT22;57519;51.494;-2.626;2023-07-24T00:17:39;16.43;86.62
70154;DHT22;57519;51.494;-2.626;2023-07-24T00:20:05;16.41;85.63
70154;DHT22;57519;51.494;-2.626;2023-07-24T00:22:31;16.45;85.68
70154;DHT22;57519;51.494;-2.626;2023-07-24T00:24:56;16.46;85.81
70154;DHT22;57519;51.494;-2.626;2023-07-24T00:27:21;16.50;85.96
70154;DHT22;57519;51.494;-2.626;2023-07-24T00:29:47;16.50;85.96
70154;DHT22;57519;51.494;-2.626;2023-07-24T00:32:12;16.48;86.47
70154;DHT22;57519;51.494;-2.626;2023-07-24T00:34:38;16.42;86.61
70154;DHT22;57519;51.494;-2.626;2023-07-24T00:37:03;16.43;86.59
70154;DHT22;57519;51.494;-2.626;2023-07-24T00:39:29;16.42;86.72
70154;DHT22;57519;51.494;-2.626;2023-07-24T00:41:55;16.45;86.87
70154;DHT22;57519;51.494;-2.626;2023-07-24T00:44:20;16.41;86.57
70154;DHT22;57519;51.494;-2.626;2023-07-24T00:46:46;16.43;86.78
70154;DHT22;57519;51.494;-2.626;2023-07-24T00:49:12;16.42;86.81
70154;DHT22;57519;51.494;-2.626;2023-07-24T00:51:37;16.39;86.90
70154;DHT22;57519;51.494;-2.626;2023-07-24T00:54:05;16.36;87.07
70154;DHT22;57519;51.494;-2.626;2023-07-24T00:56:31;16.38;87.02
70154;DHT22;57519;51.494;-2.626;2023-07-24T00:58:57;16.36;87.37
70154;DHT22;57519;51.494;-2.626;2023-07-24T01:01:24;16.33;87.17
70154;DHT22;57519;51.494;-2.626;2023-07-24T01:03:51;16.33;87.19
70154;DHT22;57519;51.494;-2.626;2023-07-24T01:06:16;16.38;87.36
70154;DHT22;57519;51.494;-2.626;2023-07-24T01:08:41;16.39;87.30
70154;DHT22;57519;51.494;-2.626;2023-07-24T01:11:15;16.36;87.39
70154;DHT22;57519;51.494;-2.626;2023-07-24T01:16:36;16.34;87.61
70154;DHT22;57519;51.494;-2.626;2023-07-24T01:19:04;16.26;87.74
70154;DHT22;57519;51.494;-2.626;2023-07-24T01:21:45;16.25;88.03
70154;DHT22;57519;51.494;-2.626;2023-07-24T01:26:45;16.18;88.53
70154;DHT22;57519;51.494;-2.626;2023-07-24T01:29:11;16.16;88.75
70154;DHT22;57519;51.494;-2.626;2023-07-24T01:31:36;16.09;88.80
70154;DHT22;57519;51.494;-2.626;2023-07-24T01:34:02;16.04;89.08
70154;DHT22;57519;51.494;-2.626;2023-07-24T01:36:27;15.98;89.29
70154;DHT22;57519;51.494;-2.626;2023-07-24T01:38:53;15.93;89.54
70154;DHT22;57519;51.494;-2.626;2023-07-24T01:41:19;15.91;89.77
70154;DHT22;57519;51.494;-2.626;2023-07-24T01:43:44;15.84;90.32
70154;DHT22;57519;51.494;-2.626;2023-07-24T01:46:10;15.80;90.49
70154;DHT22;57519;51.494;-2.626;2023-07-24T01:48:35;15.83;90.53
70154;DHT22;57519;51.494;-2.626;2023-07-24T01:51:00;15.87;90.49
70154;DHT22;57519;51.494;-2.626;2023-07-24T01:53:26;15.91;90.50
70154;DHT22;57519;51.494;-2.626;2023-07-24T01:55:51;15.94;90.61
70154;DHT22;57519;51.494;-2.626;2023-07-24T01:58:17;15.93;90.57
70154;DHT22;57519;51.494;-2.626;2023-07-24T02:00:43;15.90;90.52
70154;DHT22;57519;51.494;-2.626;2023-07-24T02:03:08;15.94;90.31
70154;DHT22;57519;51.494;-2.626;2023-07-24T02:05:34;15.90;90.14
70154;DHT22;57519;51.494;-2.626;2023-07-24T02:08:00;15.93;90.06
70154;DHT22;57519;51.494;-2.626;2023-07-24T02:10:26;15.94;89.98
70154;DHT22;57519;51.494;-2.626;2023-07-24T02:12:51;15.94;89.97
70154;DHT22;57519;51.494;-2.626;2023-07-24T02:15:17;15.85;90.07
70154;DHT22;57519;51.494;-2.626;2023-07-24T02:17:42;15.90;89.92
70154;DHT22;57519;51.494;-2.626;2023-07-24T02:20:08;15.90;89.98
70154;DHT22;57519;51.494;-2.626;2023-07-24T02:22:33;15.80;90.11
70154;DHT22;57519;51.494;-2.626;2023-07-24T02:24:59;15.80;90.28
70154;DHT22;57519;51.494;-2.626;2023-07-24T02:27:29;15.77;90.37
70154;DHT22;57519;51.494;-2.626;2023-07-24T02:29:56;15.73;90.54
70154;DHT22;57519;51.494;-2.626;2023-07-24T02:32:22;15.80;90.63
70154;DHT22;57519;51.494;-2.626;2023-07-24T02:34:52;15.80;90.62
70154;DHT22;57519;51.494;-2.626;2023-07-24T02:37:18;15.78;90.62
70154;DHT22;57519;51.494;-2.626;2023-07-24T02:39:43;15.74;90.65
70154;DHT22;57519;51.494;-2.626;2023-07-24T02:42:09;15.74;90.81
70154;DHT22;57519;51.494;-2.626;2023-07-24T02:44:34;15.71;90.91
70154;DHT22;57519;51.494;-2.626;2023-07-24T02:47:00;15.66;90.92
70154;DHT22;57519;51.494;-2.626;2023-07-24T02:49:25;15.61;90.99
70154;DHT22;57519;51.494;-2.626;2023-07-24T02:51:50;15.57;91.03
70154;DHT22;57519;51.494;-2.626;2023-07-24T02:54:16;15.46;91.31
70154;DHT22;57519;51.494;-2.626;2023-07-24T02:56:41;15.37;91.47
70154;DHT22;57519;51.494;-2.626;2023-07-24T02:59:07;15.32;91.46
70154;DHT22;57519;51.494;-2.626;2023-07-24T03:01:32;15.23;91.62
70154;DHT22;57519;51.494;-2.626;2023-07-24T03:03:58;15.12;91.71
70154;DHT22;57519;51.494;-2.626;2023-07-24T03:06:23;15.08;91.88
70154;DHT22;57519;51.494;-2.626;2023-07-24T03:08:49;15.03;91.90
70154;DHT22;57519;51.494;-2.626;2023-07-24T03:11:14;14.93;92.11
70154;DHT22;57519;51.494;-2.626;2023-07-24T03:13:39;14.95;92.32
70154;DHT22;57519;51.494;-2.626;2023-07-24T03:16:06;14.89;92.41
70154;DHT22;57519;51.494;-2.626;2023-07-24T03:18:31;14.84;92.38
70154;DHT22;57519;51.494;-2.626;2023-07-24T03:20:58;14.85;92.45
70154;DHT22;57519;51.494;-2.626;2023-07-24T03:23:24;14.77;92.43
70154;DHT22;57519;51.494;-2.626;2023-07-24T03:25:49;14.74;92.49
70154;DHT22;57519;51.494;-2.626;2023-07-24T03:28:15;14.67;92.70
70154;DHT22;57519;51.494;-2.626;2023-07-24T03:30:40;14.63;92.87
70154;DHT22;57519;51.494;-2.626;2023-07-24T03:33:06;14.68;93.19
70154;DHT22;57519;51.494;-2.626;2023-07-24T03:35:32;14.70;93.11
70154;DHT22;57519;51.494;-2.626;2023-07-24T03:37:57;14.72;92.97
70154;DHT22;57519;51.494;-2.626;2023-07-24T03:40:23;14.65;92.91
70154;DHT22;57519;51.494;-2.626;2023-07-24T03:42:48;14.71;92.95
70154;DHT22;57519;51.494;-2.626;2023-07-24T03:45:14;14.77;93.08
70154;DHT22;57519;51.494;-2.626;2023-07-24T03:47:39;14.80;93.03
70154;DHT22;57519;51.494;-2.626;2023-07-24T03:50:05;14.85;93.01
70154;DHT22;57519;51.494;-2.626;2023-07-24T03:52:30;14.81;93.04
70154;DHT22;57519;51.494;-2.626;2023-07-24T03:54:56;14.88;93.24
70154;DHT22;57519;51.494;-2.626;2023-07-24T03:57:21;14.88;93.15
70154;DHT22;57519;51.494;-2.626;2023-07-24T03:59:46;14.93;93.16
70154;DHT22;57519;51.494;-2.626;2023-07-24T04:02:12;15.02;93.14
70154;DHT22;57519;51.494;-2.626;2023-07-24T04:04:38;15.02;93.06
70154;DHT22;57519;51.494;-2.626;2023-07-24T04:07:04;15.02;93.13
70154;DHT22;57519;51.494;-2.626;2023-07-24T04:09:29;14.99;93.17
70154;DHT22;57519;51.494;-2.626;2023-07-24T04:11:55;14.98;93.28
70154;DHT22;57519;51.494;-2.626;2023-07-24T04:14:20;15.05;93.34
70154;DHT22;57519;51.494;-2.626;2023-07-24T04:16:46;15.09;93.33
70154;DHT22;57519;51.494;-2.626;2023-07-24T04:19:11;15.15;92.64
70154;DHT22;57519;51.494;-2.626;2023-07-24T04:21:37;15.23;92.58
70154;DHT22;57519;51.494;-2.626;2023-07-24T04:24:02;15.25;92.46
70154;DHT22;57519;51.494;-2.626;2023-07-24T04:26:27;15.30;92.64
70154;DHT22;57519;51.494;-2.626;2023-07-24T04:28:53;15.36;92.35
70154;DHT22;57519;51.494;-2.626;2023-07-24T04:31:18;15.37;91.85
70154;DHT22;57519;51.494;-2.626;2023-07-24T04:33:44;15.43;91.59
70154;DHT22;57519;51.494;-2.626;2023-07-24T04:36:09;15.49;91.10
70154;DHT22;57519;51.494;-2.626;2023-07-24T04:38:34;15.54;91.29
70154;DHT22;57519;51.494;-2.626;2023-07-24T04:41:01;15.53;91.20
70154;DHT22;57519;51.494;-2.626;2023-07-24T04:43:28;15.53;91.05
70154;DHT22;57519;51.494;-2.626;2023-07-24T04:45:53;15.56;91.17
70154;DHT22;57519;51.494;-2.626;2023-07-24T04:48:19;15.53;91.37
70154;DHT22;57519;51.494;-2.626;2023-07-24T04:50:44;15.56;91.38
70154;DHT22;57519;51.494;-2.626;2023-07-24T04:53:10;15.61;91.02
70154;DHT22;57519;51.494;-2.626;2023-07-24T04:55:35;15.67;91.13
70154;DHT22;57519;51.494;-2.626;2023-07-24T04:58:01;15.74;91.35
70154;DHT22;57519;51.494;-2.626;2023-07-24T05:00:26;15.73;91.86
70154;DHT22;57519;51.494;-2.626;2023-07-24T05:02:52;15.66;92.07
70154;DHT22;57519;51.494;-2.626;2023-07-24T05:05:17;15.57;92.21
70154;DHT22;57519;51.494;-2.626;2023-07-24T05:07:43;15.53;92.86
70154;DHT22;57519;51.494;-2.626;2023-07-24T05:10:08;15.56;93.51
70154;DHT22;57519;51.494;-2.626;2023-07-24T05:12:34;15.50;93.87
70154;DHT22;57519;51.494;-2.626;2023-07-24T05:14:59;15.47;94.15
70154;DHT22;57519;51.494;-2.626;2023-07-24T05:17:25;15.42;94.53
70154;DHT22;57519;51.494;-2.626;2023-07-24T05:19:50;15.47;94.95
70154;DHT22;57519;51.494;-2.626;2023-07-24T05:22:15;15.42;94.81
70154;DHT22;57519;51.494;-2.626;2023-07-24T05:24:41;15.29;94.69
70154;DHT22;57519;51.494;-2.626;2023-07-24T05:27:06;15.23;94.90
70154;DHT22;57519;51.494;-2.626;2023-07-24T05:29:32;15.23;95.24
70154;DHT22;57519;51.494;-2.626;2023-07-24T05:31:57;15.23;95.25
70154;DHT22;57519;51.494;-2.626;2023-07-24T05:34:24;15.16;94.87
70154;DHT22;57519;51.494;-2.626;2023-07-24T05:36:49;15.00;94.39
70154;DHT22;57519;51.494;-2.626;2023-07-24T05:39:15;14.91;94.47
70154;DHT22;57519;51.494;-2.626;2023-07-24T05:41:40;14.84;94.70
70154;DHT22;57519;51.494;-2.626;2023-07-24T05:44:05;14.71;94.70
70154;DHT22;57519;51.494;-2.626;2023-07-24T05:46:31;14.68;95.23
70154;DHT22;57519;51.494;-2.626;2023-07-24T05:48:56;14.60;95.09
70154;DHT22;57519;51.494;-2.626;2023-07-24T05:51:22;14.53;95.08
70154;DHT22;57519;51.494;-2.626;2023-07-24T05:53:47;14.50;95.55
70154;DHT22;57519;51.494;-2.626;2023-07-24T05:56:13;14.50;95.83
70154;DHT22;57519;51.494;-2.626;2023-07-24T05:58:38;14.45;95.52
70154;DHT22;57519;51.494;-2.626;2023-07-24T06:01:04;14.51;95.52
70154;DHT22;57519;51.494;-2.626;2023-07-24T06:03:30;14.63;95.81
70154;DHT22;57519;51.494;-2.626;2023-07-24T06:05:56;14.65;95.02
70154;DHT22;57519;51.494;-2.626;2023-07-24T06:08:21;14.64;94.90
70154;DHT22;57519;51.494;-2.626;2023-07-24T06:10:48;14.56;94.85
70154;DHT22;57519;51.494;-2.626;2023-07-24T06:13:17;14.53;94.80
70154;DHT22;57519;51.494;-2.626;2023-07-24T06:15:43;14.56;95.05
70154;DHT22;57519;51.494;-2.626;2023-07-24T06:18:09;14.67;95.38
70154;DHT22;57519;51.494;-2.626;2023-07-24T06:20:35;14.63;95.39
70154;DHT22;57519;51.494;-2.626;2023-07-24T06:23:01;14.61;95.08
70154;DHT22;57519;51.494;-2.626;2023-07-24T06:25:27;14.61;95.23
70154;DHT22;57519;51.494;-2.626;2023-07-24T06:27:53;14.60;95.05
70154;DHT22;57519;51.494;-2.626;2023-07-24T06:30:18;14.48;94.65
70154;DHT22;57519;51.494;-2.626;2023-07-24T06:32:43;14.34;95.21
70154;DHT22;57519;51.494;-2.626;2023-07-24T06:35:09;14.26;95.27
70154;DHT22;57519;51.494;-2.626;2023-07-24T06:37:34;14.22;95.38
70154;DHT22;57519;51.494;-2.626;2023-07-24T06:40:00;14.24;95.63
70154;DHT22;57519;51.494;-2.626;2023-07-24T06:42:25;14.17;95.52
70154;DHT22;57519;51.494;-2.626;2023-07-24T06:44:51;14.20;95.16
70154;DHT22;57519;51.494;-2.626;2023-07-24T06:47:16;14.24;95.37
70154;DHT22;57519;51.494;-2.626;2023-07-24T06:49:42;14.19;95.10
70154;DHT22;57519;51.494;-2.626;2023-07-24T06:52:07;14.22;94.78
70154;DHT22;57519;51.494;-2.626;2023-07-24T06:56:58;14.26;94.87
70154;DHT22;57519;51.494;-2.626;2023-07-24T06:59:30;14.27;94.61
70154;DHT22;57519;51.494;-2.626;2023-07-24T07:01:56;14.27;94.59
70154;DHT22;57519;51.494;-2.626;2023-07-24T07:04:26;14.14;94.43
70154;DHT22;57519;51.494;-2.626;2023-07-24T07:06:54;14.12;94.40
70154;DHT22;57519;51.494;-2.626;2023-07-24T07:09:22;14.08;94.01
70154;DHT22;57519;51.494;-2.626;2023-07-24T07:11:52;14.06;93.88
70154;DHT22;57519;51.494;-2.626;2023-07-24T07:14:20;14.16;94.07
70154;DHT22;57519;51.494;-2.626;2023-07-24T07:16:45;14.06;92.92
70154;DHT22;57519;51.494;-2.626;2023-07-24T07:19:13;14.10;93.60
70154;DHT22;57519;51.494;-2.626;2023-07-24T07:21:38;14.06;93.22
70154;DHT22;57519;51.494;-2.626;2023-07-24T07:24:04;14.05;92.96
70154;DHT22;57519;51.494;-2.626;2023-07-24T07:26:29;14.08;93.51
70154;DHT22;57519;51.494;-2.626;2023-07-24T07:28:55;14.03;93.17
70154;DHT22;57519;51.494;-2.626;2023-07-24T07:31:21;14.01;92.92
70154;DHT22;57519;51.494;-2.626;2023-07-24T07:33:46;14.01;93.40
70154;DHT22;57519;51.494;-2.626;2023-07-24T07:36:11;14.08;93.45
70154;DHT22;57519;51.494;-2.626;2023-07-24T07:38:37;13.95;93.40
70154;DHT22;57519;51.494;-2.626;2023-07-24T07:41:05;13.96;93.35
70154;DHT22;57519;51.494;-2.626;2023-07-24T07:43:31;13.98;93.40
70154;DHT22;57519;51.494;-2.626;2023-07-24T07:45:56;13.98;92.95
70154;DHT22;57519;51.494;-2.626;2023-07-24T07:48:22;13.98;93.03
70154;DHT22;57519;51.494;-2.626;2023-07-24T07:50:51;14.01;93.31
70154;DHT22;57519;51.494;-2.626;2023-07-24T07:53:17;13.99;92.52
70154;DHT22;57519;51.494;-2.626;2023-07-24T07:55:42;14.10;93.01
70154;DHT22;57519;51.494;-2.626;2023-07-24T07:58:07;14.13;92.66
70154;DHT22;57519;51.494;-2.626;2023-07-24T08:00:33;14.12;92.00
70154;DHT22;57519;51.494;-2.626;2023-07-24T08:02:58;14.22;92.65
70154;DHT22;57519;51.494;-2.626;2023-07-24T08:05:24;14.17;91.77
70154;DHT22;57519;51.494;-2.626;2023-07-24T08:07:49;14.14;92.10
70154;DHT22;57519;51.494;-2.626;2023-07-24T08:10:14;14.16;92.03
70154;DHT22;57519;51.494;-2.626;2023-07-24T08:12:42;14.20;92.52
70154;DHT22;57519;51.494;-2.626;2023-07-24T08:15:08;14.17;92.03
70154;DHT22;57519;51.494;-2.626;2023-07-24T08:17:33;14.29;92.07
70154;DHT22;57519;51.494;-2.626;2023-07-24T08:19:59;14.29;91.91
70154;DHT22;57519;51.494;-2.626;2023-07-24T08:22:24;14.30;91.48
70154;DHT22;57519;51.494;-2.626;2023-07-24T08:24:49;14.37;91.42
70154;DHT22;57519;51.494;-2.626;2023-07-24T08:27:16;14.36;91.01
70154;DHT22;57519;51.494;-2.626;2023-07-24T08:29:42;14.30;90.62
70154;DHT22;57519;51.494;-2.626;2023-07-24T08:32:07;14.36;90.82
70154;DHT22;57519;51.494;-2.626;2023-07-24T08:34:33;14.44;90.52
70154;DHT22;57519;51.494;-2.626;2023-07-24T08:36:58;14.53;90.49
70154;DHT22;57519;51.494;-2.626;2023-07-24T08:39:24;14.57;90.08
70154;DHT22;57519;51.494;-2.626;2023-07-24T08:41:49;14.72;90.56
70154;DHT22;57519;51.494;-2.626;2023-07-24T08:44:15;14.70;89.93
70154;DHT22;57519;51.494;-2.626;2023-07-24T08:46:42;14.63;89.83
70154;DHT22;57519;51.494;-2.626;2023-07-24T08:49:14;14.54;89.34
70154;DHT22;57519;51.494;-2.626;2023-07-24T08:51:41;14.70;90.44
70154;DHT22;57519;51.494;-2.626;2023-07-24T08:54:06;14.75;90.10
70154;DHT22;57519;51.494;-2.626;2023-07-24T08:56:33;14.63;89.46
70154;DHT22;57519;51.494;-2.626;2023-07-24T08:58:58;14.59;89.43
70154;DHT22;57519;51.494;-2.626;2023-07-24T09:01:24;14.54;89.23
70154;DHT22;57519;51.494;-2.626;2023-07-24T09:03:50;14.50;88.84
70154;DHT22;57519;51.494;-2.626;2023-07-24T09:06:15;14.41;89.03
70154;DHT22;57519;51.494;-2.626;2023-07-24T09:08:42;14.38;89.66
70154;DHT22;57519;51.494;-2.626;2023-07-24T09:11:09;14.36;89.84
70154;DHT22;57519;51.494;-2.626;2023-07-24T09:13:36;14.40;89.96
70154;DHT22;57519;51.494;-2.626;2023-07-24T09:16:02;14.38;89.14
70154;DHT22;57519;51.494;-2.626;2023-07-24T09:18:41;14.57;89.60
70154;DHT22;57519;51.494;-2.626;2023-07-24T09:21:07;14.37;89.28
70154;DHT22;57519;51.494;-2.626;2023-07-24T09:23:32;14.41;89.67
70154;DHT22;57519;51.494;-2.626;2023-07-24T09:25:58;14.38;89.53
70154;DHT22;57519;51.494;-2.626;2023-07-24T09:28:24;14.50;90.13
70154;DHT22;57519;51.494;-2.626;2023-07-24T09:30:54;14.60;90.50
70154;DHT22;57519;51.494;-2.626;2023-07-24T09:33:39;14.61;89.21
70154;DHT22;57519;51.494;-2.626;2023-07-24T09:36:06;14.48;90.16
70154;DHT22;57519;51.494;-2.626;2023-07-24T09:38:36;14.40;89.81
70154;DHT22;57519;51.494;-2.626;2023-07-24T09:41:03;14.36;90.11
70154;DHT22;57519;51.494;-2.626;2023-07-24T09:43:29;14.32;89.85
70154;DHT22;57519;51.494;-2.626;2023-07-24T09:45:55;14.33;89.18
70154;DHT22;57519;51.494;-2.626;2023-07-24T09:48:23;14.50;90.31
70154;DHT22;57519;51.494;-2.626;2023-07-24T09:50:52;14.56;88.32
70154;DHT22;57519;51.494;-2.626;2023-07-24T09:53:22;14.87;89.76
70154;DHT22;57519;51.494;-2.626;2023-07-24T09:55:57;14.75;87.89
70154;DHT22;57519;51.494;-2.626;2023-07-24T09:58:24;14.92;88.43
70154;DHT22;57519;51.494;-2.626;2023-07-24T10:00:54;14.92;87.34
70154;DHT22;57519;51.494;-2.626;2023-07-24T10:03:22;15.06;87.69
70154;DHT22;57519;51.494;-2.626;2023-07-24T10:05:48;15.12;87.76
70154;DHT22;57519;51.494;-2.626;2023-07-24T10:08:15;14.93;87.55
70154;DHT22;57519;51.494;-2.626;2023-07-24T10:10:41;14.84;86.90
70154;DHT22;57519;51.494;-2.626;2023-07-24T10:13:07;14.88;86.41
70154;DHT22;57519;51.494;-2.626;2023-07-24T10:15:37;15.00;86.30
70154;DHT22;57519;51.494;-2.626;2023-07-24T10:18:06;14.95;85.35
70154;DHT22;57519;51.494;-2.626;2023-07-24T10:20:40;15.09;85.35
70154;DHT22;57519;51.494;-2.626;2023-07-24T10:23:09;15.30;85.66
70154;DHT22;57519;51.494;-2.626;2023-07-24T10:25:37;15.43;85.57
70154;DHT22;57519;51.494;-2.626;2023-07-24T10:28:07;15.36;84.96
70154;DHT22;57519;51.494;-2.626;2023-07-24T10:30:39;15.33;85.11
70154;DHT22;57519;51.494;-2.626;2023-07-24T10:33:18;15.27;84.14
70154;DHT22;57519;51.494;-2.626;2023-07-24T10:35:45;15.37;84.12
70154;DHT22;57519;51.494;-2.626;2023-07-24T10:38:14;15.64;83.18
70154;DHT22;57519;51.494;-2.626;2023-07-24T10:40:45;16.14;82.70
70154;DHT22;57519;51.494;-2.626;2023-07-24T10:43:13;16.33;82.42
70154;DHT22;57519;51.494;-2.626;2023-07-24T10:45:46;16.41;81.05
70154;DHT22;57519;51.494;-2.626;2023-07-24T10:48:13;16.56;81.82
70154;DHT22;57519;51.494;-2.626;2023-07-24T10:50:49;16.70;80.69
70154;DHT22;57519;51.494;-2.626;2023-07-24T10:53:16;16.26;80.45
70154;DHT22;57519;51.494;-2.626;2023-07-24T10:55:43;16.41;81.94
70154;DHT22;57519;51.494;-2.626;2023-07-24T10:58:09;16.22;80.57
70154;DHT22;57519;51.494;-2.626;2023-07-24T11:00:35;16.42;81.26
70154;DHT22;57519;51.494;-2.626;2023-07-24T11:03:01;16.38;80.46
70154;DHT22;57519;51.494;-2.626;2023-07-24T11:05:27;16.38;80.77
70154;DHT22;57519;51.494;-2.626;2023-07-24T11:07:52;16.39;80.44
70154;DHT22;57519;51.494;-2.626;2023-07-24T11:10:19;16.50;80.72
70154;DHT22;57519;51.494;-2.626;2023-07-24T11:12:45;16.50;79.99
70154;DHT22;57519;51.494;-2.626;2023-07-24T11:15:12;16.60;80.23
70154;DHT22;57519;51.494;-2.626;2023-07-24T11:17:39;17.00;80.09
70154;DHT22;57519;51.494;-2.626;2023-07-24T11:20:12;17.18;78.43
70154;DHT22;57519;51.494;-2.626;2023-07-24T11:22:42;17.28;78.24
70154;DHT22;57519;51.494;-2.626;2023-07-24T11:25:08;17.36;78.06
70154;DHT22;57519;51.494;-2.626;2023-07-24T11:27:41;17.27;77.97
70154;DHT22;57519;51.494;-2.626;2023-07-24T11:30:09;16.90;79.26
70154;DHT22;57519;51.494;-2.626;2023-07-24T11:32:35;16.55;79.69
70154;DHT22;57519;51.494;-2.626;2023-07-24T11:35:01;16.67;80.49
70154;DHT22;57519;51.494;-2.626;2023-07-24T11:37:27;16.88;79.64
70154;DHT22;57519;51.494;-2.626;2023-07-24T11:40:00;16.81;79.92
70154;DHT22;57519;51.494;-2.626;2023-07-24T11:42:39;16.59;79.68
70154;DHT22;57519;51.494;-2.626;2023-07-24T11:45:06;16.39;79.95
70154;DHT22;57519;51.494;-2.626;2023-07-24T11:47:44;16.18;80.38
70154;DHT22;57519;51.494;-2.626;2023-07-24T11:50:10;16.48;80.20
70154;DHT22;57519;51.494;-2.626;2023-07-24T11:52:46;16.39;80.05
70154;DHT22;57519;51.494;-2.626;2023-07-24T11:55:14;16.42;80.09
70154;DHT22;57519;51.494;-2.626;2023-07-24T11:57:40;16.19;80.14
70154;DHT22;57519;51.494;-2.626;2023-07-24T12:00:06;16.14;81.74
70154;DHT22;57519;51.494;-2.626;2023-07-24T12:02:42;16.18;80.23
70154;DHT22;57519;51.494;-2.626;2023-07-24T12:05:09;16.39;79.91
70154;DHT22;57519;51.494;-2.626;2023-07-24T12:07:35;16.71;79.47
70154;DHT22;57519;51.494;-2.626;2023-07-24T12:10:02;16.84;79.06
70154;DHT22;57519;51.494;-2.626;2023-07-24T12:12:44;16.87;78.55
70154;DHT22;57519;51.494;-2.626;2023-07-24T12:15:10;16.97;79.58
70154;DHT22;57519;51.494;-2.626;2023-07-24T12:17:36;16.90;79.18
70154;DHT22;57519;51.494;-2.626;2023-07-24T12:20:03;16.83;80.11
70154;DHT22;57519;51.494;-2.626;2023-07-24T12:22:29;16.49;80.84
70154;DHT22;57519;51.494;-2.626;2023-07-24T12:24:55;16.23;82.49
70154;DHT22;57519;51.494;-2.626;2023-07-24T12:27:21;16.05;82.76
70154;DHT22;57519;51.494;-2.626;2023-07-24T12:29:46;15.88;82.89
70154;DHT22;57519;51.494;-2.626;2023-07-24T12:32:11;15.81;83.05
70154;DHT22;57519;51.494;-2.626;2023-07-24T12:34:37;15.70;83.40
70154;DHT22;57519;51.494;-2.626;2023-07-24T12:37:02;15.71;83.69
70154;DHT22;57519;51.494;-2.626;2023-07-24T12:39:28;15.85;82.54
70154;DHT22;57519;51.494;-2.626;2023-07-24T12:41:53;16.21;82.62
70154;DHT22;57519;51.494;-2.626;2023-07-24T12:44:19;16.50;81.11
70154;DHT22;57519;51.494;-2.626;2023-07-24T12:46:44;16.66;80.02
70154;DHT22;57519;51.494;-2.626;2023-07-24T12:49:09;16.79;80.08
70154;DHT22;57519;51.494;-2.626;2023-07-24T12:51:35;16.73;80.79
70154;DHT22;57519;51.494;-2.626;2023-07-24T12:54:00;16.43;80.51
70154;DHT22;57519;51.494;-2.626;2023-07-24T12:56:26;16.21;81.53
70154;DHT22;57519;51.494;-2.626;2023-07-24T12:58:51;16.00;83.30
70154;DHT22;57519;51.494;-2.626;2023-07-24T13:01:17;15.85;83.87
70154;DHT22;57519;51.494;-2.626;2023-07-24T13:03:42;15.77;83.72
70154;DHT22;57519;51.494;-2.626;2023-07-24T13:06:08;15.63;84.06
70154;DHT22;57519;51.494;-2.626;2023-07-24T13:08:33;15.74;83.48
70154;DHT22;57519;51.494;-2.626;2023-07-24T13:10:58;15.66;83.48
70154;DHT22;57519;51.494;-2.626;2023-07-24T13:13:24;15.64;84.16
70154;DHT22;57519;51.494;-2.626;2023-07-24T13:15:49;15.66;83.77
70154;DHT22;57519;51.494;-2.626;2023-07-24T13:18:16;15.73;83.91
70154;DHT22;57519;51.494;-2.626;2023-07-24T13:20:42;15.80;83.31
70154;DHT22;57519;51.494;-2.626;2023-07-24T13:23:08;15.83;82.66
70154;DHT22;57519;51.494;-2.626;2023-07-24T13:25:33;15.85;82.52
70154;DHT22;57519;51.494;-2.626;2023-07-24T13:27:59;16.02;81.24
70154;DHT22;57519;51.494;-2.626;2023-07-24T13:30:24;16.33;80.82
70154;DHT22;57519;51.494;-2.626;2023-07-24T13:32:49;16.55;80.01
70154;DHT22;57519;51.494;-2.626;2023-07-24T13:35:15;16.79;79.47
70154;DHT22;57519;51.494;-2.626;2023-07-24T13:37:41;17.28;79.08
70154;DHT22;57519;51.494;-2.626;2023-07-24T13:40:07;17.76;77.91
70154;DHT22;57519;51.494;-2.626;2023-07-24T13:42:32;18.00;77.68
70154;DHT22;57519;51.494;-2.626;2023-07-24T13:44:58;17.55;75.52
70154;DHT22;57519;51.494;-2.626;2023-07-24T13:47:23;17.07;78.46
70154;DHT22;57519;51.494;-2.626;2023-07-24T13:49:49;16.79;77.45
70154;DHT22;57519;51.494;-2.626;2023-07-24T13:52:14;16.28;79.49
70154;DHT22;57519;51.494;-2.626;2023-07-24T13:54:40;16.12;80.57
70154;DHT22;57519;51.494;-2.626;2023-07-24T13:57:05;15.91;81.98
70154;DHT22;57519;51.494;-2.626;2023-07-24T13:59:34;15.54;83.56
70154;DHT22;57519;51.494;-2.626;2023-07-24T14:01:59;15.39;85.44
70154;DHT22;57519;51.494;-2.626;2023-07-24T14:04:25;15.27;85.10
70154;DHT22;57519;51.494;-2.626;2023-07-24T14:06:50;15.23;85.95
70154;DHT22;57519;51.494;-2.626;2023-07-24T14:09:16;15.10;85.45
70154;DHT22;57519;51.494;-2.626;2023-07-24T14:11:41;15.09;85.77
70154;DHT22;57519;51.494;-2.626;2023-07-24T14:14:07;15.18;85.78
70154;DHT22;57519;51.494;-2.626;2023-07-24T14:16:32;15.29;85.53
70154;DHT22;57519;51.494;-2.626;2023-07-24T14:18:58;15.36;85.28
70154;DHT22;57519;51.494;-2.626;2023-07-24T14:21:23;15.53;85.79
70154;DHT22;57519;51.494;-2.626;2023-07-24T14:23:49;15.60;85.07
70154;DHT22;57519;51.494;-2.626;2023-07-24T14:26:14;15.60;84.70
70154;DHT22;57519;51.494;-2.626;2023-07-24T14:28:39;15.58;84.71
70154;DHT22;57519;51.494;-2.626;2023-07-24T14:31:05;15.57;85.82
70154;DHT22;57519;51.494;-2.626;2023-07-24T14:33:31;15.53;85.58
70154;DHT22;57519;51.494;-2.626;2023-07-24T14:35:56;15.43;85.29
70154;DHT22;57519;51.494;-2.626;2023-07-24T14:38:22;15.08;87.55
70154;DHT22;57519;51.494;-2.626;2023-07-24T14:40:48;14.91;88.64
70154;DHT22;57519;51.494;-2.626;2023-07-24T14:43:13;14.98;89.10
70154;DHT22;57519;51.494;-2.626;2023-07-24T14:45:39;14.89;89.25
70154;DHT22;57519;51.494;-2.626;2023-07-24T14:48:05;14.99;88.97
70154;DHT22;57519;51.494;-2.626;2023-07-24T14:50:34;15.16;88.83
70154;DHT22;57519;51.494;-2.626;2023-07-24T14:52:59;15.08;87.12
70154;DHT22;57519;51.494;-2.626;2023-07-24T14:55:24;15.25;88.13
70154;DHT22;57519;51.494;-2.626;2023-07-24T14:57:50;15.32;86.41
70154;DHT22;57519;51.494;-2.626;2023-07-24T15:00:16;15.42;86.11
70154;DHT22;57519;51.494;-2.626;2023-07-24T15:02:41;15.60;85.81
70154;DHT22;57519;51.494;-2.626;2023-07-24T15:05:07;15.78;85.24
70154;DHT22;57519;51.494;-2.626;2023-07-24T15:07:32;15.73;84.64
70154;DHT22;57519;51.494;-2.626;2023-07-24T15:09:58;16.01;85.01
70154;DHT22;57519;51.494;-2.626;2023-07-24T15:12:23;16.33;84.12
70154;DHT22;57519;51.494;-2.626;2023-07-24T15:14:56;16.32;82.30
70154;DHT22;57519;51.494;-2.626;2023-07-24T15:17:21;16.48;82.07